Mount Washington, Canada
Current Conditions -  °F | °C
As of 9:00 PM on Saturday 25 Oct 2014 (Local Time) from CYBL Reporting Station
Light Rain Light Rain  
Wind Chill: 37°   Ceiling: 5000
Heat Index: 43°   Visibility: 5mi
Dew Point: 41°   Wind: 12mph
Humidity: 93%   Direction: 320°NW
Pressure: 29.43"   Gusts: NA
Location:  49.74°N, 125.26°W
Report Text: CYBL 260400Z 32010KT 5SM -RA BR FEW006 OVC050 06/05 A2943 RMK CF2SC6 LAST OBS/NEXT 261300UTC SLP967
Loading
Personal Weather Stations






























Interactive Weather Map
Tropical Storm Tracking
New forecast layout! Learn more

10-Day Weather Forecast

Advertisements
Track Severe Weather on mobile